sensor_id;sensor_type;location;lat;lon;timestamp;P1;durP1;ratioP1;P2;durP2;ratioP2
18507;SDS011;9383;50.928;12.116;2023-03-01T00:00:48;18.47;;;14.37;;
18507;SDS011;9383;50.928;12.116;2023-03-01T00:03:15;17.30;;;13.90;;
18507;SDS011;9383;50.928;12.116;2023-03-01T00:05:45;18.30;;;14.50;;
18507;SDS011;9383;50.928;12.116;2023-03-01T00:08:12;18.53;;;14.17;;
18507;SDS011;9383;50.928;12.116;2023-03-01T00:10:39;18.17;;;14.37;;
18507;SDS011;9383;50.928;12.116;2023-03-01T00:13:05;23.23;;;15.33;;
18507;SDS011;9383;50.928;12.116;2023-03-01T00:15:32;18.03;;;14.93;;
18507;SDS011;9383;50.928;12.116;2023-03-01T00:18:00;17.83;;;14.00;;
18507;SDS011;9383;50.928;12.116;2023-03-01T00:20:26;18.87;;;14.60;;
18507;SDS011;9383;50.928;12.116;2023-03-01T00:22:53;16.27;;;14.03;;
18507;SDS011;9383;50.928;12.116;2023-03-01T00:25:21;17.30;;;13.87;;
18507;SDS011;9383;50.928;12.116;2023-03-01T00:27:48;18.57;;;14.63;;
18507;SDS011;9383;50.928;12.116;2023-03-01T00:30:15;17.20;;;14.67;;
18507;SDS011;9383;50.928;12.116;2023-03-01T00:32:42;17.43;;;13.73;;
18507;SDS011;9383;50.928;12.116;2023-03-01T00:35:09;17.17;;;13.30;;
18507;SDS011;9383;50.928;12.116;2023-03-01T00:37:35;16.20;;;13.80;;
18507;SDS011;9383;50.928;12.116;2023-03-01T00:40:01;15.73;;;14.00;;
18507;SDS011;9383;50.928;12.116;2023-03-01T00:42:31;18.20;;;14.53;;
18507;SDS011;9383;50.928;12.116;2023-03-01T00:44:57;18.43;;;14.50;;
18507;SDS011;9383;50.928;12.116;2023-03-01T00:47:24;17.57;;;14.20;;
18507;SDS011;9383;50.928;12.116;2023-03-01T00:49:50;17.47;;;14.03;;
18507;SDS011;9383;50.928;12.116;2023-03-01T00:52:17;17.57;;;13.77;;
18507;SDS011;9383;50.928;12.116;2023-03-01T00:54:43;18.90;;;14.63;;
18507;SDS011;9383;50.928;12.116;2023-03-01T00:57:10;18.30;;;14.93;;
18507;SDS011;9383;50.928;12.116;2023-03-01T00:59:36;16.67;;;13.63;;
18507;SDS011;9383;50.928;12.116;2023-03-01T01:02:02;17.43;;;14.50;;
18507;SDS011;9383;50.928;12.116;2023-03-01T01:04:29;18.77;;;15.00;;
18507;SDS011;9383;50.928;12.116;2023-03-01T01:06:55;18.00;;;14.43;;
18507;SDS011;9383;50.928;12.116;2023-03-01T01:09:22;16.73;;;14.90;;
18507;SDS011;9383;50.928;12.116;2023-03-01T01:11:49;21.03;;;15.20;;
18507;SDS011;9383;50.928;12.116;2023-03-01T01:14:16;21.27;;;16.47;;
18507;SDS011;9383;50.928;12.116;2023-03-01T01:16:44;21.97;;;14.53;;
18507;SDS011;9383;50.928;12.116;2023-03-01T01:19:11;19.23;;;14.67;;
18507;SDS011;9383;50.928;12.116;2023-03-01T01:21:38;16.70;;;14.53;;
18507;SDS011;9383;50.928;12.116;2023-03-01T01:24:06;17.17;;;14.10;;
18507;SDS011;9383;50.928;12.116;2023-03-01T01:26:33;18.33;;;15.17;;
18507;SDS011;9383;50.928;12.116;2023-03-01T01:29:00;18.73;;;15.40;;
18507;SDS011;9383;50.928;12.116;2023-03-01T01:31:29;17.77;;;14.27;;
18507;SDS011;9383;50.928;12.116;2023-03-01T01:33:56;18.70;;;14.57;;
18507;SDS011;9383;50.928;12.116;2023-03-01T01:36:23;19.57;;;15.77;;
18507;SDS011;9383;50.928;12.116;2023-03-01T01:38:50;19.17;;;14.50;;
18507;SDS011;9383;50.928;12.116;2023-03-01T01:41:17;19.67;;;15.17;;
18507;SDS011;9383;50.928;12.116;2023-03-01T01:43:45;19.17;;;14.77;;
18507;SDS011;9383;50.928;12.116;2023-03-01T01:46:15;20.33;;;14.97;;
18507;SDS011;9383;50.928;12.116;2023-03-01T01:48:54;20.10;;;14.83;;
18507;SDS011;9383;50.928;12.116;2023-03-01T01:51:43;18.77;;;15.60;;
18507;SDS011;9383;50.928;12.116;2023-03-01T01:54:14;19.17;;;15.07;;
18507;SDS011;9383;50.928;12.116;2023-03-01T01:56:48;21.10;;;15.90;;
18507;SDS011;9383;50.928;12.116;2023-03-01T01:59:20;18.97;;;15.73;;
18507;SDS011;9383;50.928;12.116;2023-03-01T02:01:50;22.70;;;16.10;;
18507;SDS011;9383;50.928;12.116;2023-03-01T02:04:18;19.87;;;15.57;;
18507;SDS011;9383;50.928;12.116;2023-03-01T02:06:47;19.43;;;15.20;;
18507;SDS011;9383;50.928;12.116;2023-03-01T02:09:20;17.83;;;15.30;;
18507;SDS011;9383;50.928;12.116;2023-03-01T02:11:48;20.13;;;15.33;;
18507;SDS011;9383;50.928;12.116;2023-03-01T02:14:16;19.67;;;15.37;;
18507;SDS011;9383;50.928;12.116;2023-03-01T02:16:42;20.17;;;15.17;;
18507;SDS011;9383;50.928;12.116;2023-03-01T02:19:10;17.73;;;14.07;;
18507;SDS011;9383;50.928;12.116;2023-03-01T02:27:28;18.63;;;14.77;;
18507;SDS011;9383;50.928;12.116;2023-03-01T02:30:02;19.37;;;15.43;;
18507;SDS011;9383;50.928;12.116;2023-03-01T02:32:29;16.47;;;14.73;;
18507;SDS011;9383;50.928;12.116;2023-03-01T02:34:56;19.73;;;16.03;;
18507;SDS011;9383;50.928;12.116;2023-03-01T02:37:23;20.73;;;15.67;;
18507;SDS011;9383;50.928;12.116;2023-03-01T02:39:53;20.90;;;16.27;;
18507;SDS011;9383;50.928;12.116;2023-03-01T02:42:26;17.93;;;15.00;;
18507;SDS011;9383;50.928;12.116;2023-03-01T02:44:57;20.43;;;16.63;;
18507;SDS011;9383;50.928;12.116;2023-03-01T02:47:23;19.60;;;15.23;;
18507;SDS011;9383;50.928;12.116;2023-03-01T02:49:49;18.07;;;14.47;;
18507;SDS011;9383;50.928;12.116;2023-03-01T02:52:30;21.07;;;16.27;;
18507;SDS011;9383;50.928;12.116;2023-03-01T02:57:37;20.23;;;15.53;;
18507;SDS011;9383;50.928;12.116;2023-03-01T03:00:06;19.40;;;15.17;;
18507;SDS011;9383;50.928;12.116;2023-03-01T03:02:49;20.40;;;15.40;;
18507;SDS011;9383;50.928;12.116;2023-03-01T03:07:46;18.60;;;16.03;;
18507;SDS011;9383;50.928;12.116;2023-03-01T03:10:18;20.20;;;16.53;;
18507;SDS011;9383;50.928;12.116;2023-03-01T03:12:59;20.27;;;15.40;;
18507;SDS011;9383;50.928;12.116;2023-03-01T03:15:28;19.97;;;15.57;;
18507;SDS011;9383;50.928;12.116;2023-03-01T03:17:55;21.13;;;16.37;;
18507;SDS011;9383;50.928;12.116;2023-03-01T03:20:24;19.77;;;15.63;;
18507;SDS011;9383;50.928;12.116;2023-03-01T03:22:53;20.63;;;15.17;;
18507;SDS011;9383;50.928;12.116;2023-03-01T03:25:21;18.93;;;14.97;;
18507;SDS011;9383;50.928;12.116;2023-03-01T03:27:49;20.30;;;15.53;;
18507;SDS011;9383;50.928;12.116;2023-03-01T03:30:22;18.57;;;15.47;;
18507;SDS011;9383;50.928;12.116;2023-03-01T03:32:53;20.10;;;16.47;;
18507;SDS011;9383;50.928;12.116;2023-03-01T03:35:22;21.13;;;16.13;;
18507;SDS011;9383;50.928;12.116;2023-03-01T03:37:51;22.87;;;17.13;;
18507;SDS011;9383;50.928;12.116;2023-03-01T03:40:27;20.60;;;17.03;;
18507;SDS011;9383;50.928;12.116;2023-03-01T03:43:00;23.10;;;16.80;;
18507;SDS011;9383;50.928;12.116;2023-03-01T03:45:27;22.37;;;16.87;;
18507;SDS011;9383;50.928;12.116;2023-03-01T03:47:54;21.00;;;17.27;;
18507;SDS011;9383;50.928;12.116;2023-03-01T03:50:20;26.37;;;18.37;;
18507;SDS011;9383;50.928;12.116;2023-03-01T03:52:47;21.67;;;17.20;;
18507;SDS011;9383;50.928;12.116;2023-03-01T03:55:13;20.30;;;16.10;;
18507;SDS011;9383;50.928;12.116;2023-03-01T03:57:45;23.33;;;17.73;;
18507;SDS011;9383;50.928;12.116;2023-03-01T04:00:20;23.53;;;17.63;;
18507;SDS011;9383;50.928;12.116;2023-03-01T04:02:49;23.37;;;18.07;;
18507;SDS011;9383;50.928;12.116;2023-03-01T04:05:18;24.40;;;18.10;;
18507;SDS011;9383;50.928;12.116;2023-03-01T04:07:45;23.93;;;18.40;;
18507;SDS011;9383;50.928;12.116;2023-03-01T04:10:13;22.53;;;18.03;;
18507;SDS011;9383;50.928;12.116;2023-03-01T04:12:42;24.17;;;18.13;;
18507;SDS011;9383;50.928;12.116;2023-03-01T04:15:08;23.00;;;17.70;;
18507;SDS011;9383;50.928;12.116;2023-03-01T04:17:40;25.23;;;17.50;;
18507;SDS011;9383;50.928;12.116;2023-03-01T04:20:08;21.93;;;17.50;;
18507;SDS011;9383;50.928;12.116;2023-03-01T04:22:37;24.20;;;16.47;;
18507;SDS011;9383;50.928;12.116;2023-03-01T04:25:04;21.83;;;17.30;;
18507;SDS011;9383;50.928;12.116;2023-03-01T04:27:34;22.27;;;16.70;;
18507;SDS011;9383;50.928;12.116;2023-03-01T04:30:02;21.80;;;17.17;;
18507;SDS011;9383;50.928;12.116;2023-03-01T04:32:29;23.30;;;17.53;;
18507;SDS011;9383;50.928;12.116;2023-03-01T04:34:56;20.93;;;17.17;;
18507;SDS011;9383;50.928;12.116;2023-03-01T04:37:22;22.87;;;17.43;;
18507;SDS011;9383;50.928;12.116;2023-03-01T04:39:49;20.53;;;15.57;;
18507;SDS011;9383;50.928;12.116;2023-03-01T04:42:15;20.03;;;16.17;;
18507;SDS011;9383;50.928;12.116;2023-03-01T04:44:43;17.87;;;15.83;;
18507;SDS011;9383;50.928;12.116;2023-03-01T04:47:09;19.17;;;15.87;;
18507;SDS011;9383;50.928;12.116;2023-03-01T04:49:37;19.70;;;15.60;;
18507;SDS011;9383;50.928;12.116;2023-03-01T04:52:04;21.33;;;16.73;;
18507;SDS011;9383;50.928;12.116;2023-03-01T04:54:31;20.00;;;15.80;;
18507;SDS011;9383;50.928;12.116;2023-03-01T04:56:59;20.67;;;16.67;;
18507;SDS011;9383;50.928;12.116;2023-03-01T04:59:26;21.70;;;17.37;;
18507;SDS011;9383;50.928;12.116;2023-03-01T05:01:53;20.77;;;16.77;;
18507;SDS011;9383;50.928;12.116;2023-03-01T05:04:26;22.13;;;16.87;;
18507;SDS011;9383;50.928;12.116;2023-03-01T05:06:53;21.67;;;17.63;;
18507;SDS011;9383;50.928;12.116;2023-03-01T05:09:19;20.47;;;16.13;;
18507;SDS011;9383;50.928;12.116;2023-03-01T05:11:46;20.37;;;16.00;;
18507;SDS011;9383;50.928;12.116;2023-03-01T05:14:12;22.43;;;17.03;;
18507;SDS011;9383;50.928;12.116;2023-03-01T05:16:39;25.37;;;17.63;;
18507;SDS011;9383;50.928;12.116;2023-03-01T05:19:05;22.87;;;17.37;;
18507;SDS011;9383;50.928;12.116;2023-03-01T05:21:41;25.40;;;16.90;;
18507;SDS011;9383;50.928;12.116;2023-03-01T05:24:28;20.37;;;16.77;;
18507;SDS011;9383;50.928;12.116;2023-03-01T05:26:56;20.47;;;16.70;;
18507;SDS011;9383;50.928;12.116;2023-03-01T05:29:23;21.60;;;17.10;;
18507;SDS011;9383;50.928;12.116;2023-03-01T05:31:52;24.40;;;17.80;;
18507;SDS011;9383;50.928;12.116;2023-03-01T05:34:29;22.83;;;17.27;;
18507;SDS011;9383;50.928;12.116;2023-03-01T05:37:00;48.93;;;32.03;;
18507;SDS011;9383;50.928;12.116;2023-03-01T05:39:28;38.93;;;25.93;;
18507;SDS011;9383;50.928;12.116;2023-03-01T05:41:56;28.00;;;21.20;;
18507;SDS011;9383;50.928;12.116;2023-03-01T05:44:26;24.67;;;18.63;;
18507;SDS011;9383;50.928;12.116;2023-03-01T05:46:54;27.50;;;21.43;;
18507;SDS011;9383;50.928;12.116;2023-03-01T05:49:21;27.70;;;20.23;;
18507;SDS011;9383;50.928;12.116;2023-03-01T05:51:51;30.30;;;21.57;;
18507;SDS011;9383;50.928;12.116;2023-03-01T05:54:19;26.73;;;19.60;;
18507;SDS011;9383;50.928;12.116;2023-03-01T05:56:47;29.03;;;21.53;;
18507;SDS011;9383;50.928;12.116;2023-03-01T05:59:13;28.03;;;20.63;;
18507;SDS011;9383;50.928;12.116;2023-03-01T06:01:41;27.40;;;21.30;;
18507;SDS011;9383;50.928;12.116;2023-03-01T06:04:09;26.53;;;20.63;;
18507;SDS011;9383;50.928;12.116;2023-03-01T06:06:36;24.70;;;20.27;;
18507;SDS011;9383;50.928;12.116;2023-03-01T06:09:03;30.50;;;21.97;;
18507;SDS011;9383;50.928;12.116;2023-03-01T06:11:33;28.33;;;22.43;;
18507;SDS011;9383;50.928;12.116;2023-03-01T06:14:01;29.47;;;23.20;;
18507;SDS011;9383;50.928;12.116;2023-03-01T06:16:27;33.07;;;23.40;;
18507;SDS011;9383;50.928;12.116;2023-03-01T06:18:54;30.80;;;23.03;;
18507;SDS011;9383;50.928;12.116;2023-03-01T06:21:20;30.70;;;21.83;;
18507;SDS011;9383;50.928;12.116;2023-03-01T06:23:47;31.07;;;23.80;;
18507;SDS011;9383;50.928;12.116;2023-03-01T06:26:14;32.20;;;24.47;;
18507;SDS011;9383;50.928;12.116;2023-03-01T06:28:40;33.10;;;24.57;;
18507;SDS011;9383;50.928;12.116;2023-03-01T06:31:07;28.73;;;22.27;;
18507;SDS011;9383;50.928;12.116;2023-03-01T06:33:34;31.27;;;23.83;;
18507;SDS011;9383;50.928;12.116;2023-03-01T06:36:01;29.97;;;22.90;;
18507;SDS011;9383;50.928;12.116;2023-03-01T06:38:28;31.47;;;23.33;;
18507;SDS011;9383;50.928;12.116;2023-03-01T06:40:55;31.80;;;23.93;;
18507;SDS011;9383;50.928;12.116;2023-03-01T06:43:22;32.00;;;24.30;;
18507;SDS011;9383;50.928;12.116;2023-03-01T06:45:49;33.27;;;24.57;;
18507;SDS011;9383;50.928;12.116;2023-03-01T06:48:16;30.00;;;23.50;;
18507;SDS011;9383;50.928;12.116;2023-03-01T06:50:42;31.73;;;25.20;;
18507;SDS011;9383;50.928;12.116;2023-03-01T06:53:09;35.77;;;26.23;;
18507;SDS011;9383;50.928;12.116;2023-03-01T06:55:35;36.73;;;27.40;;
18507;SDS011;9383;50.928;12.116;2023-03-01T06:58:02;37.47;;;29.43;;
18507;SDS011;9383;50.928;12.116;2023-03-01T07:00:29;36.93;;;28.87;;
18507;SDS011;9383;50.928;12.116;2023-03-01T07:02:58;37.67;;;28.57;;
18507;SDS011;9383;50.928;12.116;2023-03-01T07:05:27;39.03;;;29.17;;
18507;SDS011;9383;50.928;12.116;2023-03-01T07:07:54;35.00;;;26.90;;
18507;SDS011;9383;50.928;12.116;2023-03-01T07:10:21;31.90;;;27.53;;
18507;SDS011;9383;50.928;12.116;2023-03-01T07:12:48;32.03;;;26.73;;
18507;SDS011;9383;50.928;12.116;2023-03-01T07:15:14;35.80;;;26.60;;
18507;SDS011;9383;50.928;12.116;2023-03-01T07:17:41;34.47;;;28.17;;
18507;SDS011;9383;50.928;12.116;2023-03-01T07:20:09;32.63;;;26.27;;
18507;SDS011;9383;50.928;12.116;2023-03-01T07:22:36;32.03;;;26.60;;
18507;SDS011;9383;50.928;12.116;2023-03-01T07:25:07;35.43;;;27.63;;
18507;SDS011;9383;50.928;12.116;2023-03-01T07:27:34;35.30;;;26.60;;
18507;SDS011;9383;50.928;12.116;2023-03-01T07:30:02;34.87;;;25.07;;
18507;SDS011;9383;50.928;12.116;2023-03-01T07:32:29;30.63;;;24.97;;
18507;SDS011;9383;50.928;12.116;2023-03-01T07:34:55;32.77;;;26.30;;
18507;SDS011;9383;50.928;12.116;2023-03-01T07:37:21;28.90;;;23.67;;
18507;SDS011;9383;50.928;12.116;2023-03-01T07:39:48;29.00;;;23.63;;
18507;SDS011;9383;50.928;12.116;2023-03-01T07:42:14;28.42;;;24.15;;
18507;SDS011;9383;50.928;12.116;2023-03-01T07:44:41;27.05;;;22.17;;
18507;SDS011;9383;50.928;12.116;2023-03-01T07:47:08;28.35;;;24.20;;
18507;SDS011;9383;50.928;12.116;2023-03-01T07:49:34;26.05;;;22.90;;
18507;SDS011;9383;50.928;12.116;2023-03-01T07:52:01;25.92;;;21.15;;
18507;SDS011;9383;50.928;12.116;2023-03-01T07:54:28;24.38;;;21.02;;
18507;SDS011;9383;50.928;12.116;2023-03-01T07:56:55;25.55;;;21.35;;
18507;SDS011;9383;50.928;12.116;2023-03-01T07:59:22;24.13;;;21.33;;
18507;SDS011;9383;50.928;12.116;2023-03-01T08:01:54;25.63;;;21.33;;
18507;SDS011;9383;50.928;12.116;2023-03-01T08:04:22;24.08;;;21.08;;
18507;SDS011;9383;50.928;12.116;2023-03-01T08:06:50;25.25;;;21.35;;
18507;SDS011;9383;50.928;12.116;2023-03-01T08:09:17;25.13;;;22.10;;
18507;SDS011;9383;50.928;12.116;2023-03-01T08:11:44;27.10;;;22.85;;
18507;SDS011;9383;50.928;12.116;2023-03-01T08:14:10;23.10;;;20.67;;
18507;SDS011;9383;50.928;12.116;2023-03-01T08:16:37;23.10;;;20.67;;
18507;SDS011;9383;50.928;12.116;2023-03-01T08:19:08;21.83;;;19.05;;
18507;SDS011;9383;50.928;12.116;2023-03-01T08:21:37;21.52;;;19.27;;
18507;SDS011;9383;50.928;12.116;2023-03-01T08:24:05;23.13;;;19.05;;
18507;SDS011;9383;50.928;12.116;2023-03-01T08:26:32;21.33;;;18.85;;
18507;SDS011;9383;50.928;12.116;2023-03-01T08:28:59;23.52;;;19.48;;
18507;SDS011;9383;50.928;12.116;2023-03-01T08:31:27;22.98;;;18.95;;
18507;SDS011;9383;50.928;12.116;2023-03-01T08:33:58;21.90;;;18.13;;
18507;SDS011;9383;50.928;12.116;2023-03-01T08:36:26;22.73;;;18.65;;
18507;SDS011;9383;50.928;12.116;2023-03-01T08:38:58;19.33;;;17.23;;
18507;SDS011;9383;50.928;12.116;2023-03-01T08:41:24;22.02;;;18.75;;
18507;SDS011;9383;50.928;12.116;2023-03-01T08:43:51;21.38;;;17.88;;
18507;SDS011;9383;50.928;12.116;2023-03-01T08:46:27;20.23;;;18.02;;
18507;SDS011;9383;50.928;12.116;2023-03-01T08:48:55;19.40;;;17.27;;
18507;SDS011;9383;50.928;12.116;2023-03-01T08:51:21;19.58;;;16.75;;
18507;SDS011;9383;50.928;12.116;2023-03-01T08:53:49;20.42;;;17.55;;
18507;SDS011;9383;50.928;12.116;2023-03-01T08:56:16;18.27;;;16.23;;
18507;SDS011;9383;50.928;12.116;2023-03-01T08:58:47;18.33;;;16.38;;
18507;SDS011;9383;50.928;12.116;2023-03-01T09:01:16;17.92;;;16.05;;
18507;SDS011;9383;50.928;12.116;2023-03-01T09:03:44;16.92;;;15.13;;
18507;SDS011;9383;50.928;12.116;2023-03-01T09:06:11;17.15;;;15.27;;
18507;SDS011;9383;50.928;12.116;2023-03-01T09:08:40;16.23;;;14.63;;
18507;SDS011;9383;50.928;12.116;2023-03-01T09:11:09;16.48;;;14.73;;
18507;SDS011;9383;50.928;12.116;2023-03-01T09:13:37;17.35;;;15.38;;
18507;SDS011;9383;50.928;12.116;2023-03-01T09:16:04;17.15;;;15.32;;
18507;SDS011;9383;50.928;12.116;2023-03-01T09:18:32;17.35;;;14.77;;
18507;SDS011;9383;50.928;12.116;2023-03-01T09:21:01;16.13;;;14.50;;
18507;SDS011;9383;50.928;12.116;2023-03-01T09:23:33;16.70;;;15.00;;
18507;SDS011;9383;50.928;12.116;2023-03-01T09:26:02;17.80;;;14.73;;
18507;SDS011;9383;50.928;12.116;2023-03-01T09:28:34;17.52;;;15.73;;
18507;SDS011;9383;50.928;12.116;2023-03-01T09:31:02;16.60;;;14.82;;
18507;SDS011;9383;50.928;12.116;2023-03-01T09:33:30;17.13;;;15.27;;
18507;SDS011;9383;50.928;12.116;2023-03-01T09:35:58;17.55;;;15.10;;
18507;SDS011;9383;50.928;12.116;2023-03-01T09:38:26;16.80;;;15.00;;
18507;SDS011;9383;50.928;12.116;2023-03-01T09:40:52;17.35;;;15.40;;
18507;SDS011;9383;50.928;12.116;2023-03-01T09:45:49;16.88;;;14.95;;
18507;SDS011;9383;50.928;12.116;2023-03-01T09:48:20;17.52;;;15.50;;
18507;SDS011;9383;50.928;12.116;2023-03-01T09:50:51;16.65;;;14.95;;
18507;SDS011;9383;50.928;12.116;2023-03-01T09:53:30;16.90;;;15.10;;
18507;SDS011;9383;50.928;12.116;2023-03-01T10:02:24;16.17;;;14.40;;
18507;SDS011;9383;50.928;12.116;2023-03-01T10:08:02;16.63;;;14.48;;
18507;SDS011;9383;50.928;12.116;2023-03-01T10:10:33;18.60;;;15.05;;
18507;SDS011;9383;50.928;12.116;2023-03-01T10:13:05;17.88;;;14.88;;
18507;SDS011;9383;50.928;12.116;2023-03-01T10:15:47;16.23;;;14.63;;
18507;SDS011;9383;50.928;12.116;2023-03-01T10:18:21;16.52;;;14.40;;
18507;SDS011;9383;50.928;12.116;2023-03-01T10:23:29;17.27;;;15.48;;
18507;SDS011;9383;50.928;12.116;2023-03-01T10:29:04;16.23;;;14.52;;
18507;SDS011;9383;50.928;12.116;2023-03-01T10:31:38;17.73;;;14.20;;
18507;SDS011;9383;50.928;12.116;2023-03-01T10:36:44;15.70;;;14.07;;
18507;SDS011;9383;50.928;12.116;2023-03-01T10:39:17;14.95;;;13.27;;
18507;SDS011;9383;50.928;12.116;2023-03-01T10:41:53;15.05;;;13.65;;
18507;SDS011;9383;50.928;12.116;2023-03-01T10:44:41;18.00;;;14.05;;
18507;SDS011;9383;50.928;12.116;2023-03-01T10:47:21;14.30;;;12.70;;
18507;SDS011;9383;50.928;12.116;2023-03-01T10:49:54;14.32;;;12.63;;
18507;SDS011;9383;50.928;12.116;2023-03-01T10:52:26;14.40;;;12.90;;
18507;SDS011;9383;50.928;12.116;2023-03-01T10:55:03;14.13;;;12.63;;
18507;SDS011;9383;50.928;12.116;2023-03-01T10:57:52;14.13;;;12.73;;
18507;SDS011;9383;50.928;12.116;2023-03-01T11:00:33;14.40;;;12.93;;
18507;SDS011;9383;50.928;12.116;2023-03-01T11:03:14;14.07;;;12.77;;
18507;SDS011;9383;50.928;12.116;2023-03-01T11:05:50;14.88;;;13.27;;
18507;SDS011;9383;50.928;12.116;2023-03-01T11:08:31;14.52;;;13.02;;
18507;SDS011;9383;50.928;12.116;2023-03-01T11:11:04;16.10;;;12.93;;
18507;SDS011;9383;50.928;12.116;2023-03-01T11:13:31;14.77;;;12.52;;
18507;SDS011;9383;50.928;12.116;2023-03-01T11:16:00;14.20;;;12.77;;
18507;SDS011;9383;50.928;12.116;2023-03-01T11:18:29;13.35;;;12.05;;
18507;SDS011;9383;50.928;12.116;2023-03-01T11:20:56;15.13;;;13.55;;
18507;SDS011;9383;50.928;12.116;2023-03-01T11:23:27;14.63;;;13.23;;
18507;SDS011;9383;50.928;12.116;2023-03-01T11:25:57;15.77;;;14.05;;
18507;SDS011;9383;50.928;12.116;2023-03-01T11:28:28;15.57;;;13.95;;
18507;SDS011;9383;50.928;12.116;2023-03-01T11:33:37;15.13;;;13.32;;
18507;SDS011;9383;50.928;12.116;2023-03-01T11:39:05;14.52;;;13.00;;
18507;SDS011;9383;50.928;12.116;2023-03-01T11:41:47;15.77;;;14.07;;
18507;SDS011;9383;50.928;12.116;2023-03-01T11:44:20;14.45;;;13.05;;
18507;SDS011;9383;50.928;12.116;2023-03-01T11:47:03;14.52;;;12.82;;
18507;SDS011;9383;50.928;12.116;2023-03-01T11:52:40;14.00;;;12.55;;
18507;SDS011;9383;50.928;12.116;2023-03-01T12:01:12;15.27;;;13.77;;
18507;SDS011;9383;50.928;12.116;2023-03-01T12:07:00;14.55;;;12.85;;
18507;SDS011;9383;50.928;12.116;2023-03-01T12:12:58;14.45;;;13.10;;
18507;SDS011;9383;50.928;12.116;2023-03-01T12:16:07;14.75;;;12.55;;
18507;SDS011;9383;50.928;12.116;2023-03-01T12:21:53;14.10;;;12.60;;
18507;SDS011;9383;50.928;12.116;2023-03-01T12:35:45;14.45;;;12.93;;
18507;SDS011;9383;50.928;12.116;2023-03-01T12:44:08;14.73;;;13.30;;
18507;SDS011;9383;50.928;12.116;2023-03-01T12:47:19;14.52;;;13.02;;
18507;SDS011;9383;50.928;12.116;2023-03-01T12:50:03;14.75;;;13.25;;
18507;SDS011;9383;50.928;12.116;2023-03-01T12:52:49;15.35;;;13.85;;
18507;SDS011;9383;50.928;12.116;2023-03-01T12:55:36;13.95;;;12.68;;
18507;SDS011;9383;50.928;12.116;2023-03-01T12:58:23;14.10;;;12.73;;
18507;SDS011;9383;50.928;12.116;2023-03-01T13:03:36;13.75;;;12.35;;
18507;SDS011;9383;50.928;12.116;2023-03-01T13:06:25;13.88;;;12.50;;
18507;SDS011;9383;50.928;12.116;2023-03-01T13:09:20;13.95;;;12.55;;
18507;SDS011;9383;50.928;12.116;2023-03-01T13:11:49;13.57;;;12.18;;
18507;SDS011;9383;50.928;12.116;2023-03-01T13:16:49;13.75;;;12.35;;
18507;SDS011;9383;50.928;12.116;2023-03-01T13:19:19;13.60;;;12.32;;
18507;SDS011;9383;50.928;12.116;2023-03-01T13:21:51;13.05;;;11.65;;
18507;SDS011;9383;50.928;12.116;2023-03-01T13:24:26;12.45;;;11.25;;
18507;SDS011;9383;50.928;12.116;2023-03-01T13:27:09;12.98;;;11.75;;
18507;SDS011;9383;50.928;12.116;2023-03-01T13:29:50;13.45;;;10.95;;
18507;SDS011;9383;50.928;12.116;2023-03-01T13:37:31;12.07;;;10.75;;
18507;SDS011;9383;50.928;12.116;2023-03-01T13:40:02;12.00;;;10.80;;
18507;SDS011;9383;50.928;12.116;2023-03-01T13:42:56;11.93;;;10.73;;
18507;SDS011;9383;50.928;12.116;2023-03-01T13:45:42;12.10;;;10.85;;
18507;SDS011;9383;50.928;12.116;2023-03-01T13:48:11;14.02;;;12.00;;
18507;SDS011;9383;50.928;12.116;2023-03-01T13:50:47;12.13;;;10.95;;
18507;SDS011;9383;50.928;12.116;2023-03-01T13:53:22;12.52;;;11.20;;
18507;SDS011;9383;50.928;12.116;2023-03-01T13:55:56;11.95;;;10.80;;
18507;SDS011;9383;50.928;12.116;2023-03-01T13:58:28;12.30;;;11.10;;
18507;SDS011;9383;50.928;12.116;2023-03-01T14:01:01;13.05;;;11.65;;
18507;SDS011;9383;50.928;12.116;2023-03-01T14:03:40;13.15;;;11.85;;
18507;SDS011;9383;50.928;12.116;2023-03-01T14:06:08;12.05;;;10.85;;
18507;SDS011;9383;50.928;12.116;2023-03-01T14:08:41;12.57;;;11.10;;
18507;SDS011;9383;50.928;12.116;2023-03-01T14:11:17;13.85;;;11.32;;
18507;SDS011;9383;50.928;12.116;2023-03-01T14:14:07;12.15;;;10.85;;
18507;SDS011;9383;50.928;12.116;2023-03-01T14:19:24;13.27;;;11.60;;
18507;SDS011;9383;50.928;12.116;2023-03-01T14:21:59;13.55;;;12.15;;
18507;SDS011;9383;50.928;12.116;2023-03-01T14:24:47;13.13;;;11.82;;
18507;SDS011;9383;50.928;12.116;2023-03-01T14:27:25;13.82;;;12.43;;
18507;SDS011;9383;50.928;12.116;2023-03-01T14:30:00;13.75;;;12.35;;
18507;SDS011;9383;50.928;12.116;2023-03-01T14:32:30;13.70;;;12.30;;
18507;SDS011;9383;50.928;12.116;2023-03-01T14:34:58;14.63;;;12.98;;
18507;SDS011;9383;50.928;12.116;2023-03-01T14:39:51;12.43;;;10.48;;
18507;SDS011;9383;50.928;12.116;2023-03-01T14:42:22;12.70;;;11.50;;
18507;SDS011;9383;50.928;12.116;2023-03-01T14:44:52;12.85;;;11.50;;
18507;SDS011;9383;50.928;12.116;2023-03-01T14:47:24;13.10;;;11.70;;
18507;SDS011;9383;50.928;12.116;2023-03-01T14:52:55;13.35;;;11.35;;
18507;SDS011;9383;50.928;12.116;2023-03-01T14:55:38;12.80;;;11.60;;
18507;SDS011;9383;50.928;12.116;2023-03-01T14:58:14;13.60;;;11.32;;
18507;SDS011;9383;50.928;12.116;2023-03-01T15:00:48;13.35;;;11.60;;
18507;SDS011;9383;50.928;12.116;2023-03-01T15:03:25;14.77;;;11.95;;
18507;SDS011;9383;50.928;12.116;2023-03-01T15:06:03;13.93;;;12.50;;
18507;SDS011;9383;50.928;12.116;2023-03-01T15:08:31;14.23;;;11.93;;
18507;SDS011;9383;50.928;12.116;2023-03-01T15:11:01;13.82;;;12.43;;
18507;SDS011;9383;50.928;12.116;2023-03-01T15:13:32;14.75;;;13.02;;
18507;SDS011;9383;50.928;12.116;2023-03-01T15:16:01;13.40;;;12.10;;
18507;SDS011;9383;50.928;12.116;2023-03-01T15:18:36;12.73;;;11.40;;
18507;SDS011;9383;50.928;12.116;2023-03-01T15:21:07;11.85;;;10.75;;
18507;SDS011;9383;50.928;12.116;2023-03-01T15:23:40;13.30;;;11.48;;
18507;SDS011;9383;50.928;12.116;2023-03-01T15:26:17;12.55;;;10.98;;
18507;SDS011;9383;50.928;12.116;2023-03-01T15:29:12;13.52;;;11.25;;
18507;SDS011;9383;50.928;12.116;2023-03-01T15:32:04;11.98;;;10.88;;
18507;SDS011;9383;50.928;12.116;2023-03-01T15:34:48;11.70;;;10.32;;
18507;SDS011;9383;50.928;12.116;2023-03-01T15:37:38;13.05;;;11.00;;
18507;SDS011;9383;50.928;12.116;2023-03-01T15:40:17;13.52;;;12.10;;
18507;SDS011;9383;50.928;12.116;2023-03-01T15:43:00;12.00;;;10.68;;
18507;SDS011;9383;50.928;12.116;2023-03-01T15:45:29;11.00;;;9.77;;
18507;SDS011;9383;50.928;12.116;2023-03-01T15:47:57;11.80;;;10.63;;
18507;SDS011;9383;50.928;12.116;2023-03-01T15:50:33;10.80;;;9.70;;
18507;SDS011;9383;50.928;12.116;2023-03-01T15:53:06;12.23;;;10.55;;
18507;SDS011;9383;50.928;12.116;2023-03-01T15:55:39;13.07;;;10.50;;
18507;SDS011;9383;50.928;12.116;2023-03-01T15:58:14;13.07;;;10.55;;
18507;SDS011;9383;50.928;12.116;2023-03-01T16:00:43;11.52;;;10.13;;
18507;SDS011;9383;50.928;12.116;2023-03-01T16:03:10;12.77;;;10.82;;
18507;SDS011;9383;50.928;12.116;2023-03-01T16:05:37;11.13;;;9.93;;
18507;SDS011;9383;50.928;12.116;2023-03-01T16:08:05;11.07;;;9.93;;
18507;SDS011;9383;50.928;12.116;2023-03-01T16:10:32;11.50;;;10.13;;
18507;SDS011;9383;50.928;12.116;2023-03-01T16:12:59;11.27;;;10.18;;